sensor_id;sensor_type;location;lat;lon;timestamp;P1;durP1;ratioP1;P2;durP2;ratioP2
11039;SDS011;5573;49.592;8.662;2023-06-24T00:01:41;163.45;;;154.32;;
11039;SDS011;5573;49.592;8.662;2023-06-24T00:04:09;176.60;;;166.57;;
11039;SDS011;5573;49.592;8.662;2023-06-24T00:06:37;174.95;;;165.27;;
11039;SDS011;5573;49.592;8.662;2023-06-24T00:09:07;171.00;;;161.50;;
11039;SDS011;5573;49.592;8.662;2023-06-24T00:11:35;189.35;;;178.82;;
11039;SDS011;5573;49.592;8.662;2023-06-24T00:14:03;187.73;;;177.15;;
11039;SDS011;5573;49.592;8.662;2023-06-24T00:16:31;184.73;;;174.50;;
11039;SDS011;5573;49.592;8.662;2023-06-24T00:18:59;176.55;;;166.73;;
11039;SDS011;5573;49.592;8.662;2023-06-24T00:21:28;181.63;;;171.38;;
11039;SDS011;5573;49.592;8.662;2023-06-24T00:23:57;183.93;;;173.63;;
11039;SDS011;5573;49.592;8.662;2023-06-24T00:26:26;172.32;;;162.73;;
11039;SDS011;5573;49.592;8.662;2023-06-24T00:28:54;185.43;;;175.02;;
11039;SDS011;5573;49.592;8.662;2023-06-24T00:31:22;181.95;;;171.65;;
11039;SDS011;5573;49.592;8.662;2023-06-24T00:33:50;197.60;;;186.63;;
11039;SDS011;5573;49.592;8.662;2023-06-24T00:36:19;196.48;;;185.45;;
11039;SDS011;5573;49.592;8.662;2023-06-24T00:38:48;197.15;;;186.13;;
11039;SDS011;5573;49.592;8.662;2023-06-24T00:41:16;186.65;;;176.07;;
11039;SDS011;5573;49.592;8.662;2023-06-24T00:43:46;185.85;;;175.27;;
11039;SDS011;5573;49.592;8.662;2023-06-24T00:46:16;190.60;;;179.88;;
11039;SDS011;5573;49.592;8.662;2023-06-24T00:48:46;175.82;;;165.90;;
11039;SDS011;5573;49.592;8.662;2023-06-24T00:51:13;203.25;;;192.00;;
11039;SDS011;5573;49.592;8.662;2023-06-24T00:53:41;206.40;;;194.80;;
11039;SDS011;5573;49.592;8.662;2023-06-24T00:56:09;185.60;;;174.95;;
11039;SDS011;5573;49.592;8.662;2023-06-24T00:58:39;202.13;;;190.70;;
11039;SDS011;5573;49.592;8.662;2023-06-24T01:01:09;204.45;;;192.88;;
11039;SDS011;5573;49.592;8.662;2023-06-24T01:03:38;191.15;;;180.57;;
11039;SDS011;5573;49.592;8.662;2023-06-24T01:06:06;219.77;;;207.43;;
11039;SDS011;5573;49.592;8.662;2023-06-24T01:08:35;201.43;;;190.27;;
11039;SDS011;5573;49.592;8.662;2023-06-24T01:11:03;185.00;;;174.80;;
11039;SDS011;5573;49.592;8.662;2023-06-24T01:13:31;214.02;;;202.05;;
11039;SDS011;5573;49.592;8.662;2023-06-24T01:16:00;196.20;;;185.13;;
11039;SDS011;5573;49.592;8.662;2023-06-24T01:18:38;205.95;;;194.57;;
11039;SDS011;5573;49.592;8.662;2023-06-24T01:21:13;178.80;;;168.65;;
11039;SDS011;5573;49.592;8.662;2023-06-24T01:23:51;188.27;;;177.65;;
11039;SDS011;5573;49.592;8.662;2023-06-24T01:26:34;172.98;;;163.38;;
11039;SDS011;5573;49.592;8.662;2023-06-24T01:29:31;192.77;;;181.80;;
11039;SDS011;5573;49.592;8.662;2023-06-24T01:32:20;206.43;;;194.88;;
11039;SDS011;5573;49.592;8.662;2023-06-24T01:34:56;184.20;;;173.85;;
11039;SDS011;5573;49.592;8.662;2023-06-24T01:37:28;209.98;;;198.43;;
11039;SDS011;5573;49.592;8.662;2023-06-24T01:40:02;199.30;;;188.27;;
11039;SDS011;5573;49.592;8.662;2023-06-24T01:42:38;204.50;;;192.90;;
11039;SDS011;5573;49.592;8.662;2023-06-24T01:45:09;189.82;;;179.25;;
11039;SDS011;5573;49.592;8.662;2023-06-24T01:47:42;191.45;;;180.63;;
11039;SDS011;5573;49.592;8.662;2023-06-24T01:50:12;198.05;;;186.88;;
11039;SDS011;5573;49.592;8.662;2023-06-24T01:52:41;201.60;;;190.15;;
11039;SDS011;5573;49.592;8.662;2023-06-24T01:55:11;204.50;;;193.02;;
11039;SDS011;5573;49.592;8.662;2023-06-24T01:57:47;191.32;;;180.45;;
11039;SDS011;5573;49.592;8.662;2023-06-24T02:00:17;216.00;;;203.73;;
11039;SDS011;5573;49.592;8.662;2023-06-24T02:02:49;194.65;;;183.65;;
11039;SDS011;5573;49.592;8.662;2023-06-24T02:05:19;199.13;;;188.20;;
11039;SDS011;5573;49.592;8.662;2023-06-24T02:07:48;208.55;;;196.93;;
11039;SDS011;5573;49.592;8.662;2023-06-24T02:10:20;208.95;;;197.20;;
11039;SDS011;5573;49.592;8.662;2023-06-24T02:12:51;201.52;;;190.00;;
11039;SDS011;5573;49.592;8.662;2023-06-24T02:15:21;188.43;;;178.00;;
11039;SDS011;5573;49.592;8.662;2023-06-24T02:17:51;193.88;;;183.13;;
11039;SDS011;5573;49.592;8.662;2023-06-24T02:20:23;216.57;;;204.57;;
11039;SDS011;5573;49.592;8.662;2023-06-24T02:22:54;200.77;;;189.60;;
11039;SDS011;5573;49.592;8.662;2023-06-24T02:25:24;202.52;;;190.93;;
11039;SDS011;5573;49.592;8.662;2023-06-24T02:27:53;199.45;;;188.27;;
11039;SDS011;5573;49.592;8.662;2023-06-24T02:30:22;204.07;;;192.32;;
11039;SDS011;5573;49.592;8.662;2023-06-24T02:32:54;201.93;;;190.52;;
11039;SDS011;5573;49.592;8.662;2023-06-24T02:35:23;201.82;;;190.65;;
11039;SDS011;5573;49.592;8.662;2023-06-24T02:37:52;187.90;;;177.43;;
11039;SDS011;5573;49.592;8.662;2023-06-24T02:40:20;207.75;;;196.18;;
11039;SDS011;5573;49.592;8.662;2023-06-24T02:42:48;198.52;;;187.40;;
11039;SDS011;5573;49.592;8.662;2023-06-24T02:45:16;193.10;;;182.38;;
11039;SDS011;5573;49.592;8.662;2023-06-24T02:47:45;191.18;;;180.10;;
11039;SDS011;5573;49.592;8.662;2023-06-24T02:50:16;186.48;;;175.98;;
11039;SDS011;5573;49.592;8.662;2023-06-24T02:52:46;193.85;;;182.88;;
11039;SDS011;5573;49.592;8.662;2023-06-24T02:55:17;195.75;;;184.90;;
11039;SDS011;5573;49.592;8.662;2023-06-24T02:57:49;198.57;;;187.27;;
11039;SDS011;5573;49.592;8.662;2023-06-24T03:00:29;189.70;;;179.10;;
11039;SDS011;5573;49.592;8.662;2023-06-24T03:03:18;202.48;;;191.13;;
11039;SDS011;5573;49.592;8.662;2023-06-24T03:05:53;202.10;;;190.70;;
11039;SDS011;5573;49.592;8.662;2023-06-24T03:08:25;195.43;;;184.60;;
11039;SDS011;5573;49.592;8.662;2023-06-24T03:10:54;198.52;;;187.45;;
11039;SDS011;5573;49.592;8.662;2023-06-24T03:13:24;213.80;;;202.05;;
11039;SDS011;5573;49.592;8.662;2023-06-24T03:15:59;197.95;;;186.73;;
11039;SDS011;5573;49.592;8.662;2023-06-24T03:18:31;192.07;;;181.23;;
11039;SDS011;5573;49.592;8.662;2023-06-24T03:21:00;210.18;;;198.50;;
11039;SDS011;5573;49.592;8.662;2023-06-24T03:23:30;205.10;;;193.63;;
11039;SDS011;5573;49.592;8.662;2023-06-24T03:25:58;195.07;;;184.05;;
11039;SDS011;5573;49.592;8.662;2023-06-24T03:28:26;199.48;;;188.20;;
11039;SDS011;5573;49.592;8.662;2023-06-24T03:31:06;200.38;;;189.10;;
11039;SDS011;5573;49.592;8.662;2023-06-24T03:33:34;200.77;;;189.40;;
11039;SDS011;5573;49.592;8.662;2023-06-24T03:36:03;204.55;;;193.30;;
11039;SDS011;5573;49.592;8.662;2023-06-24T03:38:33;199.38;;;187.90;;
11039;SDS011;5573;49.592;8.662;2023-06-24T03:41:01;190.35;;;179.65;;
11039;SDS011;5573;49.592;8.662;2023-06-24T03:43:29;213.55;;;201.75;;
11039;SDS011;5573;49.592;8.662;2023-06-24T03:45:58;227.35;;;214.73;;
11039;SDS011;5573;49.592;8.662;2023-06-24T03:48:27;208.15;;;196.35;;
11039;SDS011;5573;49.592;8.662;2023-06-24T03:50:55;204.05;;;192.40;;
11039;SDS011;5573;49.592;8.662;2023-06-24T03:53:24;200.52;;;189.00;;
11039;SDS011;5573;49.592;8.662;2023-06-24T03:55:52;209.95;;;198.10;;
11039;SDS011;5573;49.592;8.662;2023-06-24T03:58:19;193.65;;;182.88;;
11039;SDS011;5573;49.592;8.662;2023-06-24T04:00:48;192.43;;;181.52;;
11039;SDS011;5573;49.592;8.662;2023-06-24T04:03:16;201.32;;;189.77;;
11039;SDS011;5573;49.592;8.662;2023-06-24T04:05:45;204.80;;;193.50;;
11039;SDS011;5573;49.592;8.662;2023-06-24T04:08:16;207.80;;;196.45;;
11039;SDS011;5573;49.592;8.662;2023-06-24T04:10:46;201.68;;;190.63;;
11039;SDS011;5573;49.592;8.662;2023-06-24T04:13:13;224.52;;;211.73;;
11039;SDS011;5573;49.592;8.662;2023-06-24T04:15:41;225.82;;;213.20;;
11039;SDS011;5573;49.592;8.662;2023-06-24T04:18:10;209.90;;;198.32;;
11039;SDS011;5573;49.592;8.662;2023-06-24T04:20:37;206.75;;;195.40;;
11039;SDS011;5573;49.592;8.662;2023-06-24T04:23:05;205.38;;;193.85;;
11039;SDS011;5573;49.592;8.662;2023-06-24T04:25:36;202.00;;;190.50;;
11039;SDS011;5573;49.592;8.662;2023-06-24T04:28:05;202.45;;;190.82;;
11039;SDS011;5573;49.592;8.662;2023-06-24T04:30:33;206.95;;;195.77;;
11039;SDS011;5573;49.592;8.662;2023-06-24T04:33:03;215.32;;;203.35;;
11039;SDS011;5573;49.592;8.662;2023-06-24T04:35:32;218.85;;;206.27;;
11039;SDS011;5573;49.592;8.662;2023-06-24T04:38:00;242.77;;;229.23;;
11039;SDS011;5573;49.592;8.662;2023-06-24T04:40:28;209.00;;;197.25;;
11039;SDS011;5573;49.592;8.662;2023-06-24T04:42:57;226.63;;;214.00;;
11039;SDS011;5573;49.592;8.662;2023-06-24T04:45:26;215.60;;;203.27;;
11039;SDS011;5573;49.592;8.662;2023-06-24T04:47:54;226.55;;;213.80;;
11039;SDS011;5573;49.592;8.662;2023-06-24T04:50:22;215.85;;;203.75;;
11039;SDS011;5573;49.592;8.662;2023-06-24T04:52:53;229.50;;;216.73;;
11039;SDS011;5573;49.592;8.662;2023-06-24T04:55:23;220.35;;;207.77;;
11039;SDS011;5573;49.592;8.662;2023-06-24T04:57:51;213.07;;;200.93;;
11039;SDS011;5573;49.592;8.662;2023-06-24T05:00:19;231.50;;;218.63;;
11039;SDS011;5573;49.592;8.662;2023-06-24T05:02:50;222.98;;;209.95;;
11039;SDS011;5573;49.592;8.662;2023-06-24T05:05:18;230.05;;;216.95;;
11039;SDS011;5573;49.592;8.662;2023-06-24T05:07:47;229.60;;;216.68;;
11039;SDS011;5573;49.592;8.662;2023-06-24T05:10:15;236.98;;;223.88;;
11039;SDS011;5573;49.592;8.662;2023-06-24T05:12:43;220.23;;;208.13;;
11039;SDS011;5573;49.592;8.662;2023-06-24T05:15:11;225.68;;;212.90;;
11039;SDS011;5573;49.592;8.662;2023-06-24T05:17:39;214.52;;;202.60;;
11039;SDS011;5573;49.592;8.662;2023-06-24T05:20:09;224.38;;;212.10;;
11039;SDS011;5573;49.592;8.662;2023-06-24T05:22:37;206.48;;;195.10;;
11039;SDS011;5573;49.592;8.662;2023-06-24T05:25:05;227.18;;;214.57;;
11039;SDS011;5573;49.592;8.662;2023-06-24T05:27:34;218.77;;;206.45;;
11039;SDS011;5573;49.592;8.662;2023-06-24T05:30:01;204.68;;;193.27;;
11039;SDS011;5573;49.592;8.662;2023-06-24T05:32:30;204.05;;;192.95;;
11039;SDS011;5573;49.592;8.662;2023-06-24T05:34:58;219.18;;;206.95;;
11039;SDS011;5573;49.592;8.662;2023-06-24T05:37:28;198.13;;;186.95;;
11039;SDS011;5573;49.592;8.662;2023-06-24T05:39:56;215.77;;;203.68;;
11039;SDS011;5573;49.592;8.662;2023-06-24T05:42:27;202.00;;;191.00;;
11039;SDS011;5573;49.592;8.662;2023-06-24T05:44:55;189.00;;;178.65;;
11039;SDS011;5573;49.592;8.662;2023-06-24T05:47:23;208.00;;;196.63;;
11039;SDS011;5573;49.592;8.662;2023-06-24T05:49:51;205.98;;;194.55;;
11039;SDS011;5573;49.592;8.662;2023-06-24T05:52:19;214.05;;;202.43;;
11039;SDS011;5573;49.592;8.662;2023-06-24T05:54:48;205.05;;;193.93;;
11039;SDS011;5573;49.592;8.662;2023-06-24T05:57:16;210.48;;;198.70;;
11039;SDS011;5573;49.592;8.662;2023-06-24T05:59:44;199.65;;;188.70;;
11039;SDS011;5573;49.592;8.662;2023-06-24T06:02:12;192.98;;;182.18;;
11039;SDS011;5573;49.592;8.662;2023-06-24T06:04:39;198.93;;;187.75;;
11039;SDS011;5573;49.592;8.662;2023-06-24T06:07:08;238.70;;;225.38;;
11039;SDS011;5573;49.592;8.662;2023-06-24T06:09:35;206.32;;;194.95;;
11039;SDS011;5573;49.592;8.662;2023-06-24T06:12:06;224.95;;;212.77;;
11039;SDS011;5573;49.592;8.662;2023-06-24T06:14:34;221.52;;;209.27;;
11039;SDS011;5573;49.592;8.662;2023-06-24T06:17:02;213.00;;;201.38;;
11039;SDS011;5573;49.592;8.662;2023-06-24T06:19:30;196.13;;;184.85;;
11039;SDS011;5573;49.592;8.662;2023-06-24T06:21:58;190.00;;;179.27;;
11039;SDS011;5573;49.592;8.662;2023-06-24T06:24:25;190.88;;;180.25;;
11039;SDS011;5573;49.592;8.662;2023-06-24T06:26:53;191.43;;;180.85;;
11039;SDS011;5573;49.592;8.662;2023-06-24T06:29:22;197.50;;;186.50;;
11039;SDS011;5573;49.592;8.662;2023-06-24T06:31:50;193.57;;;182.75;;
11039;SDS011;5573;49.592;8.662;2023-06-24T06:34:19;215.60;;;203.50;;
11039;SDS011;5573;49.592;8.662;2023-06-24T06:36:47;212.65;;;200.77;;
11039;SDS011;5573;49.592;8.662;2023-06-24T06:39:15;196.40;;;185.60;;
11039;SDS011;5573;49.592;8.662;2023-06-24T06:41:43;194.32;;;183.20;;
11039;SDS011;5573;49.592;8.662;2023-06-24T06:44:15;213.98;;;202.10;;
11039;SDS011;5573;49.592;8.662;2023-06-24T06:46:44;205.65;;;193.73;;
11039;SDS011;5573;49.592;8.662;2023-06-24T06:49:12;198.57;;;187.15;;
11039;SDS011;5573;49.592;8.662;2023-06-24T06:51:39;208.20;;;196.63;;
11039;SDS011;5573;49.592;8.662;2023-06-24T06:54:07;217.98;;;205.68;;
11039;SDS011;5573;49.592;8.662;2023-06-24T06:56:35;222.68;;;210.07;;
11039;SDS011;5573;49.592;8.662;2023-06-24T06:59:03;219.20;;;206.90;;
11039;SDS011;5573;49.592;8.662;2023-06-24T07:01:30;212.50;;;200.73;;
11039;SDS011;5573;49.592;8.662;2023-06-24T07:04:00;189.55;;;179.15;;
11039;SDS011;5573;49.592;8.662;2023-06-24T07:06:27;243.45;;;229.82;;
11039;SDS011;5573;49.592;8.662;2023-06-24T07:08:55;271.42;;;256.17;;
11039;SDS011;5573;49.592;8.662;2023-06-24T07:11:23;303.15;;;286.83;;
11039;SDS011;5573;49.592;8.662;2023-06-24T07:13:51;306.25;;;289.30;;
11039;SDS011;5573;49.592;8.662;2023-06-24T07:16:19;305.95;;;288.77;;
11039;SDS011;5573;49.592;8.662;2023-06-24T07:18:47;283.55;;;267.60;;
11039;SDS011;5573;49.592;8.662;2023-06-24T07:21:16;335.02;;;316.20;;
11039;SDS011;5573;49.592;8.662;2023-06-24T07:23:44;364.08;;;343.58;;
11039;SDS011;5573;49.592;8.662;2023-06-24T07:26:12;386.27;;;363.60;;
11039;SDS011;5573;49.592;8.662;2023-06-24T07:28:40;397.95;;;374.45;;
11039;SDS011;5573;49.592;8.662;2023-06-24T07:31:13;377.90;;;355.67;;
11039;SDS011;5573;49.592;8.662;2023-06-24T07:33:42;373.88;;;352.30;;
11039;SDS011;5573;49.592;8.662;2023-06-24T07:36:10;358.63;;;337.77;;
11039;SDS011;5573;49.592;8.662;2023-06-24T07:38:41;367.88;;;346.08;;
11039;SDS011;5573;49.592;8.662;2023-06-24T07:41:08;385.17;;;362.10;;
11039;SDS011;5573;49.592;8.662;2023-06-24T07:43:37;387.65;;;364.60;;
11039;SDS011;5573;49.592;8.662;2023-06-24T07:46:05;365.77;;;344.25;;
11039;SDS011;5573;49.592;8.662;2023-06-24T07:48:33;378.73;;;356.52;;
11039;SDS011;5573;49.592;8.662;2023-06-24T07:51:01;387.20;;;363.52;;
11039;SDS011;5573;49.592;8.662;2023-06-24T07:53:29;367.13;;;345.58;;
11039;SDS011;5573;49.592;8.662;2023-06-24T07:55:58;359.23;;;338.27;;
11039;SDS011;5573;49.592;8.662;2023-06-24T07:58:25;362.65;;;341.02;;
11039;SDS011;5573;49.592;8.662;2023-06-24T08:00:53;362.33;;;340.83;;
11039;SDS011;5573;49.592;8.662;2023-06-24T08:03:21;354.92;;;333.70;;
11039;SDS011;5573;49.592;8.662;2023-06-24T08:05:50;360.50;;;339.05;;
11039;SDS011;5573;49.592;8.662;2023-06-24T08:08:17;374.90;;;352.73;;
11039;SDS011;5573;49.592;8.662;2023-06-24T08:10:47;366.45;;;344.73;;
11039;SDS011;5573;49.592;8.662;2023-06-24T08:13:16;374.98;;;351.95;;
11039;SDS011;5573;49.592;8.662;2023-06-24T08:15:44;394.08;;;370.27;;
11039;SDS011;5573;49.592;8.662;2023-06-24T08:18:12;400.70;;;377.05;;
11039;SDS011;5573;49.592;8.662;2023-06-24T08:20:40;425.27;;;400.00;;
11039;SDS011;5573;49.592;8.662;2023-06-24T08:23:08;426.58;;;400.52;;
11039;SDS011;5573;49.592;8.662;2023-06-24T08:25:36;400.95;;;377.35;;
11039;SDS011;5573;49.592;8.662;2023-06-24T08:28:04;394.90;;;370.88;;
11039;SDS011;5573;49.592;8.662;2023-06-24T08:30:33;384.15;;;362.08;;
11039;SDS011;5573;49.592;8.662;2023-06-24T08:33:01;394.30;;;371.05;;
11039;SDS011;5573;49.592;8.662;2023-06-24T08:35:29;376.70;;;355.15;;
11039;SDS011;5573;49.592;8.662;2023-06-24T08:37:57;376.63;;;355.70;;
11039;SDS011;5573;49.592;8.662;2023-06-24T08:40:25;384.25;;;362.23;;
11039;SDS011;5573;49.592;8.662;2023-06-24T08:42:54;374.45;;;352.88;;
11039;SDS011;5573;49.592;8.662;2023-06-24T08:45:24;362.30;;;341.88;;
11039;SDS011;5573;49.592;8.662;2023-06-24T08:47:53;370.05;;;348.85;;
11039;SDS011;5573;49.592;8.662;2023-06-24T08:50:23;382.08;;;360.25;;
11039;SDS011;5573;49.592;8.662;2023-06-24T08:52:54;360.60;;;340.27;;
11039;SDS011;5573;49.592;8.662;2023-06-24T08:55:23;371.73;;;350.85;;
11039;SDS011;5573;49.592;8.662;2023-06-24T08:57:54;380.73;;;359.63;;
11039;SDS011;5573;49.592;8.662;2023-06-24T09:00:22;386.80;;;364.48;;
11039;SDS011;5573;49.592;8.662;2023-06-24T09:02:50;392.85;;;370.42;;
11039;SDS011;5573;49.592;8.662;2023-06-24T09:05:20;383.88;;;362.30;;
11039;SDS011;5573;49.592;8.662;2023-06-24T09:07:47;368.95;;;348.30;;
11039;SDS011;5573;49.592;8.662;2023-06-24T09:10:28;361.45;;;341.00;;
11039;SDS011;5573;49.592;8.662;2023-06-24T09:12:59;362.08;;;341.30;;
11039;SDS011;5573;49.592;8.662;2023-06-24T09:15:30;364.10;;;343.33;;
11039;SDS011;5573;49.592;8.662;2023-06-24T09:18:00;366.10;;;345.33;;
11039;SDS011;5573;49.592;8.662;2023-06-24T09:20:29;388.17;;;366.27;;
11039;SDS011;5573;49.592;8.662;2023-06-24T09:22:59;388.30;;;365.95;;
11039;SDS011;5573;49.592;8.662;2023-06-24T09:25:28;355.50;;;335.52;;
11039;SDS011;5573;49.592;8.662;2023-06-24T09:27:58;362.27;;;341.95;;
11039;SDS011;5573;49.592;8.662;2023-06-24T09:30:26;392.38;;;369.77;;
11039;SDS011;5573;49.592;8.662;2023-06-24T09:32:55;375.30;;;354.17;;
11039;SDS011;5573;49.592;8.662;2023-06-24T09:35:24;378.70;;;357.30;;
11039;SDS011;5573;49.592;8.662;2023-06-24T09:37:55;379.20;;;357.88;;
11039;SDS011;5573;49.592;8.662;2023-06-24T09:40:26;382.25;;;360.63;;
11039;SDS011;5573;49.592;8.662;2023-06-24T09:42:54;387.95;;;365.35;;
11039;SDS011;5573;49.592;8.662;2023-06-24T09:45:24;381.38;;;359.60;;
11039;SDS011;5573;49.592;8.662;2023-06-24T09:47:54;388.20;;;365.90;;
11039;SDS011;5573;49.592;8.662;2023-06-24T09:50:22;394.00;;;371.95;;
11039;SDS011;5573;49.592;8.662;2023-06-24T09:52:51;388.40;;;366.30;;
11039;SDS011;5573;49.592;8.662;2023-06-24T09:55:24;402.67;;;379.70;;
11039;SDS011;5573;49.592;8.662;2023-06-24T09:57:52;397.85;;;375.42;;
11039;SDS011;5573;49.592;8.662;2023-06-24T10:00:21;393.35;;;371.00;;
11039;SDS011;5573;49.592;8.662;2023-06-24T10:02:52;392.48;;;370.27;;
11039;SDS011;5573;49.592;8.662;2023-06-24T10:05:24;392.52;;;370.25;;
11039;SDS011;5573;49.592;8.662;2023-06-24T10:07:53;389.67;;;367.55;;
11039;SDS011;5573;49.592;8.662;2023-06-24T10:10:21;380.30;;;358.88;;
11039;SDS011;5573;49.592;8.662;2023-06-24T10:12:49;378.70;;;357.25;;
11039;SDS011;5573;49.592;8.662;2023-06-24T10:15:17;380.23;;;358.83;;
11039;SDS011;5573;49.592;8.662;2023-06-24T10:17:45;381.60;;;360.00;;
11039;SDS011;5573;49.592;8.662;2023-06-24T10:20:13;382.88;;;360.92;;
11039;SDS011;5573;49.592;8.662;2023-06-24T10:22:50;376.40;;;354.92;;
11039;SDS011;5573;49.592;8.662;2023-06-24T10:25:20;375.02;;;353.70;;
11039;SDS011;5573;49.592;8.662;2023-06-24T10:27:50;375.48;;;354.80;;
11039;SDS011;5573;49.592;8.662;2023-06-24T10:30:21;393.52;;;371.30;;
11039;SDS011;5573;49.592;8.662;2023-06-24T10:32:50;377.00;;;355.70;;
11039;SDS011;5573;49.592;8.662;2023-06-24T10:35:23;371.65;;;350.63;;
11039;SDS011;5573;49.592;8.662;2023-06-24T10:37:55;391.17;;;368.90;;
11039;SDS011;5573;49.592;8.662;2023-06-24T10:40:38;372.55;;;351.73;;
11039;SDS011;5573;49.592;8.662;2023-06-24T10:45:54;359.23;;;339.45;;
11039;SDS011;5573;49.592;8.662;2023-06-24T10:48:23;369.40;;;348.60;;
11039;SDS011;5573;49.592;8.662;2023-06-24T10:50:51;394.73;;;371.65;;
11039;SDS011;5573;49.592;8.662;2023-06-24T10:53:18;385.20;;;362.83;;
11039;SDS011;5573;49.592;8.662;2023-06-24T10:55:48;394.20;;;371.60;;
11039;SDS011;5573;49.592;8.662;2023-06-24T10:58:15;399.50;;;375.98;;
11039;SDS011;5573;49.592;8.662;2023-06-24T11:00:43;392.70;;;370.60;;
11039;SDS011;5573;49.592;8.662;2023-06-24T11:03:13;413.27;;;390.00;;
11039;SDS011;5573;49.592;8.662;2023-06-24T11:05:42;387.60;;;365.83;;
11039;SDS011;5573;49.592;8.662;2023-06-24T11:08:11;401.67;;;378.70;;
11039;SDS011;5573;49.592;8.662;2023-06-24T11:10:42;401.52;;;377.88;;
11039;SDS011;5573;49.592;8.662;2023-06-24T11:13:13;382.13;;;360.00;;
11039;SDS011;5573;49.592;8.662;2023-06-24T11:15:42;408.40;;;383.95;;
11039;SDS011;5573;49.592;8.662;2023-06-24T11:18:09;391.40;;;368.67;;
11039;SDS011;5573;49.592;8.662;2023-06-24T11:20:38;400.17;;;376.30;;
11039;SDS011;5573;49.592;8.662;2023-06-24T11:23:07;397.23;;;373.77;;
11039;SDS011;5573;49.592;8.662;2023-06-24T11:25:40;407.60;;;383.77;;
11039;SDS011;5573;49.592;8.662;2023-06-24T11:28:13;404.65;;;380.88;;
11039;SDS011;5573;49.592;8.662;2023-06-24T11:30:44;385.20;;;362.85;;
11039;SDS011;5573;49.592;8.662;2023-06-24T11:33:12;417.17;;;391.77;;
11039;SDS011;5573;49.592;8.662;2023-06-24T11:35:40;406.48;;;382.60;;
11039;SDS011;5573;49.592;8.662;2023-06-24T11:38:09;437.10;;;411.10;;
11039;SDS011;5573;49.592;8.662;2023-06-24T11:40:37;428.63;;;403.33;;
11039;SDS011;5573;49.592;8.662;2023-06-24T11:43:05;420.33;;;395.15;;
11039;SDS011;5573;49.592;8.662;2023-06-24T11:45:36;402.90;;;378.63;;
11039;SDS011;5573;49.592;8.662;2023-06-24T11:48:04;439.05;;;412.75;;
11039;SDS011;5573;49.592;8.662;2023-06-24T11:50:32;436.02;;;409.67;;
11039;SDS011;5573;49.592;8.662;2023-06-24T11:53:00;443.25;;;417.20;;
11039;SDS011;5573;49.592;8.662;2023-06-24T11:55:28;420.27;;;395.20;;
11039;SDS011;5573;49.592;8.662;2023-06-24T11:57:59;442.15;;;415.92;;
11039;SDS011;5573;49.592;8.662;2023-06-24T12:00:29;429.50;;;403.95;;
11039;SDS011;5573;49.592;8.662;2023-06-24T12:03:00;435.15;;;409.08;;
11039;SDS011;5573;49.592;8.662;2023-06-24T12:05:30;435.55;;;409.52;;
11039;SDS011;5573;49.592;8.662;2023-06-24T12:08:00;419.85;;;394.70;;
11039;SDS011;5573;49.592;8.662;2023-06-24T12:10:29;434.42;;;408.42;;
11039;SDS011;5573;49.592;8.662;2023-06-24T12:12:59;435.02;;;409.48;;
11039;SDS011;5573;49.592;8.662;2023-06-24T12:15:27;423.17;;;398.25;;
11039;SDS011;5573;49.592;8.662;2023-06-24T12:17:55;449.45;;;422.75;;
11039;SDS011;5573;49.592;8.662;2023-06-24T12:20:25;392.80;;;369.15;;
11039;SDS011;5573;49.592;8.662;2023-06-24T12:22:56;410.92;;;387.17;;
11039;SDS011;5573;49.592;8.662;2023-06-24T12:25:24;406.77;;;383.27;;
11039;SDS011;5573;49.592;8.662;2023-06-24T12:27:52;410.33;;;385.85;;
11039;SDS011;5573;49.592;8.662;2023-06-24T12:30:19;414.48;;;390.33;;
11039;SDS011;5573;49.592;8.662;2023-06-24T12:32:49;413.98;;;389.58;;
11039;SDS011;5573;49.592;8.662;2023-06-24T12:35:17;427.27;;;402.35;;
11039;SDS011;5573;49.592;8.662;2023-06-24T12:37:47;401.70;;;378.25;;
11039;SDS011;5573;49.592;8.662;2023-06-24T12:40:15;418.27;;;393.92;;
11039;SDS011;5573;49.592;8.662;2023-06-24T12:42:43;421.25;;;396.25;;
11039;SDS011;5573;49.592;8.662;2023-06-24T12:45:10;434.50;;;409.08;;
11039;SDS011;5573;49.592;8.662;2023-06-24T12:47:38;417.17;;;392.45;;
11039;SDS011;5573;49.592;8.662;2023-06-24T12:50:07;424.08;;;399.17;;
11039;SDS011;5573;49.592;8.662;2023-06-24T12:52:37;446.67;;;420.30;;
11039;SDS011;5573;49.592;8.662;2023-06-24T12:55:07;423.20;;;398.60;;
11039;SDS011;5573;49.592;8.662;2023-06-24T12:57:36;434.45;;;409.00;;
11039;SDS011;5573;49.592;8.662;2023-06-24T13:00:04;407.20;;;383.48;;
11039;SDS011;5573;49.592;8.662;2023-06-24T13:02:33;421.15;;;396.58;;
11039;SDS011;5573;49.592;8.662;2023-06-24T13:05:01;399.02;;;375.83;;
11039;SDS011;5573;49.592;8.662;2023-06-24T13:07:30;420.20;;;395.65;;
11039;SDS011;5573;49.592;8.662;2023-06-24T13:09:58;410.33;;;385.73;;
11039;SDS011;5573;49.592;8.662;2023-06-24T13:12:28;415.00;;;391.20;;
11039;SDS011;5573;49.592;8.662;2023-06-24T13:14:55;412.60;;;388.48;;
11039;SDS011;5573;49.592;8.662;2023-06-24T13:17:23;410.23;;;386.33;;
11039;SDS011;5573;49.592;8.662;2023-06-24T13:19:51;399.73;;;377.08;;
11039;SDS011;5573;49.592;8.662;2023-06-24T13:22:19;393.90;;;371.48;;
11039;SDS011;5573;49.592;8.662;2023-06-24T13:24:47;400.58;;;377.40;;
11039;SDS011;5573;49.592;8.662;2023-06-24T13:27:15;407.58;;;384.00;;
11039;SDS011;5573;49.592;8.662;2023-06-24T13:29:45;405.05;;;381.67;;
11039;SDS011;5573;49.592;8.662;2023-06-24T13:32:13;418.20;;;394.17;;
11039;SDS011;5573;49.592;8.662;2023-06-24T13:34:41;431.90;;;406.90;;
11039;SDS011;5573;49.592;8.662;2023-06-24T13:37:09;419.10;;;394.25;;
11039;SDS011;5573;49.592;8.662;2023-06-24T13:39:36;423.67;;;398.30;;
11039;SDS011;5573;49.592;8.662;2023-06-24T13:42:05;431.83;;;405.83;;
11039;SDS011;5573;49.592;8.662;2023-06-24T13:44:33;432.40;;;406.90;;
11039;SDS011;5573;49.592;8.662;2023-06-24T13:47:02;429.48;;;402.95;;
11039;SDS011;5573;49.592;8.662;2023-06-24T13:49:30;421.77;;;396.90;;
11039;SDS011;5573;49.592;8.662;2023-06-24T13:51:58;440.95;;;414.58;;
11039;SDS011;5573;49.592;8.662;2023-06-24T13:54:26;457.42;;;429.75;;
11039;SDS011;5573;49.592;8.662;2023-06-24T13:56:59;436.05;;;410.02;;
11039;SDS011;5573;49.592;8.662;2023-06-24T13:59:27;436.88;;;410.77;;
11039;SDS011;5573;49.592;8.662;2023-06-24T14:01:54;467.58;;;439.10;;
11039;SDS011;5573;49.592;8.662;2023-06-24T14:04:24;458.27;;;430.45;;
11039;SDS011;5573;49.592;8.662;2023-06-24T14:06:52;466.13;;;438.17;;
11039;SDS011;5573;49.592;8.662;2023-06-24T14:09:21;448.30;;;421.27;;
11039;SDS011;5573;49.592;8.662;2023-06-24T14:11:48;457.35;;;430.75;;
11039;SDS011;5573;49.592;8.662;2023-06-24T14:14:18;454.17;;;427.45;;
11039;SDS011;5573;49.592;8.662;2023-06-24T14:16:46;437.20;;;411.08;;
11039;SDS011;5573;49.592;8.662;2023-06-24T14:19:14;436.13;;;410.10;;
11039;SDS011;5573;49.592;8.662;2023-06-24T14:21:44;450.23;;;423.20;;
11039;SDS011;5573;49.592;8.662;2023-06-24T14:24:12;442.90;;;416.45;;